sensor_id;sensor_type;location;lat;lon;timestamp;P1;durP1;ratioP1;P2;durP2;ratioP2
82727;SDS011;72459;50.110;8.750;2023-08-31T00:01:14;2.33;;;1.58;;
82727;SDS011;72459;50.110;8.750;2023-08-31T00:03:39;3.10;;;1.93;;
82727;SDS011;72459;50.110;8.750;2023-08-31T00:06:05;2.87;;;1.97;;
82727;SDS011;72459;50.110;8.750;2023-08-31T00:08:32;5.10;;;2.22;;
82727;SDS011;72459;50.110;8.750;2023-08-31T00:10:59;3.67;;;2.58;;
82727;SDS011;72459;50.110;8.750;2023-08-31T00:13:27;2.20;;;1.55;;
82727;SDS011;72459;50.110;8.750;2023-08-31T00:15:56;2.75;;;1.60;;
82727;SDS011;72459;50.110;8.750;2023-08-31T00:18:22;2.47;;;1.75;;
82727;SDS011;72459;50.110;8.750;2023-08-31T00:20:49;3.10;;;1.77;;
82727;SDS011;72459;50.110;8.750;2023-08-31T00:23:15;3.70;;;1.80;;
82727;SDS011;72459;50.110;8.750;2023-08-31T00:25:40;3.55;;;1.80;;
82727;SDS011;72459;50.110;8.750;2023-08-31T00:28:08;3.25;;;1.73;;
82727;SDS011;72459;50.110;8.750;2023-08-31T00:30:34;2.92;;;1.52;;
82727;SDS011;72459;50.110;8.750;2023-08-31T00:33:00;3.88;;;2.05;;
82727;SDS011;72459;50.110;8.750;2023-08-31T00:35:26;4.05;;;1.98;;
82727;SDS011;72459;50.110;8.750;2023-08-31T00:37:52;3.28;;;1.98;;
82727;SDS011;72459;50.110;8.750;2023-08-31T00:40:22;4.65;;;2.17;;
82727;SDS011;72459;50.110;8.750;2023-08-31T00:42:47;3.10;;;2.05;;
82727;SDS011;72459;50.110;8.750;2023-08-31T00:45:13;2.75;;;1.88;;
82727;SDS011;72459;50.110;8.750;2023-08-31T00:47:38;3.15;;;2.08;;
82727;SDS011;72459;50.110;8.750;2023-08-31T00:50:04;4.63;;;2.38;;
82727;SDS011;72459;50.110;8.750;2023-08-31T00:52:32;4.10;;;2.30;;
82727;SDS011;72459;50.110;8.750;2023-08-31T00:54:59;4.18;;;2.35;;
82727;SDS011;72459;50.110;8.750;2023-08-31T00:57:26;3.72;;;2.25;;
82727;SDS011;72459;50.110;8.750;2023-08-31T00:59:52;3.83;;;2.33;;
82727;SDS011;72459;50.110;8.750;2023-08-31T01:02:22;4.00;;;1.90;;
82727;SDS011;72459;50.110;8.750;2023-08-31T01:08:00;5.47;;;2.10;;
82727;SDS011;72459;50.110;8.750;2023-08-31T01:10:46;2.92;;;2.00;;
82727;SDS011;72459;50.110;8.750;2023-08-31T01:13:24;4.25;;;2.45;;
82727;SDS011;72459;50.110;8.750;2023-08-31T01:15:53;4.85;;;2.30;;
82727;SDS011;72459;50.110;8.750;2023-08-31T01:18:22;5.45;;;2.20;;
82727;SDS011;72459;50.110;8.750;2023-08-31T01:24:07;4.50;;;2.67;;
82727;SDS011;72459;50.110;8.750;2023-08-31T01:26:26;4.13;;;2.65;;
82727;SDS011;72459;50.110;8.750;2023-08-31T01:28:53;6.15;;;2.45;;
82727;SDS011;72459;50.110;8.750;2023-08-31T01:31:20;4.38;;;2.30;;
82727;SDS011;72459;50.110;8.750;2023-08-31T01:33:46;3.67;;;2.35;;
82727;SDS011;72459;50.110;8.750;2023-08-31T01:36:20;4.47;;;2.20;;
82727;SDS011;72459;50.110;8.750;2023-08-31T01:39:11;3.78;;;2.60;;
82727;SDS011;72459;50.110;8.750;2023-08-31T01:41:41;3.28;;;2.30;;
82727;SDS011;72459;50.110;8.750;2023-08-31T01:44:12;3.20;;;2.38;;
82727;SDS011;72459;50.110;8.750;2023-08-31T01:46:40;5.78;;;2.95;;
82727;SDS011;72459;50.110;8.750;2023-08-31T01:49:06;4.75;;;2.42;;
82727;SDS011;72459;50.110;8.750;2023-08-31T01:51:31;5.00;;;2.58;;
82727;SDS011;72459;50.110;8.750;2023-08-31T01:53:57;5.05;;;2.85;;
82727;SDS011;72459;50.110;8.750;2023-08-31T01:56:24;6.10;;;2.63;;
82727;SDS011;72459;50.110;8.750;2023-08-31T01:58:49;4.60;;;2.75;;
82727;SDS011;72459;50.110;8.750;2023-08-31T02:01:14;3.67;;;2.45;;
82727;SDS011;72459;50.110;8.750;2023-08-31T02:03:40;5.32;;;2.42;;
82727;SDS011;72459;50.110;8.750;2023-08-31T02:06:05;6.60;;;2.60;;
82727;SDS011;72459;50.110;8.750;2023-08-31T02:08:31;4.55;;;2.30;;
82727;SDS011;72459;50.110;8.750;2023-08-31T02:10:57;6.53;;;3.03;;
82727;SDS011;72459;50.110;8.750;2023-08-31T02:13:22;5.88;;;2.90;;
82727;SDS011;72459;50.110;8.750;2023-08-31T02:15:50;6.18;;;2.80;;
82727;SDS011;72459;50.110;8.750;2023-08-31T02:18:16;4.60;;;2.53;;
82727;SDS011;72459;50.110;8.750;2023-08-31T02:20:42;4.33;;;2.67;;
82727;SDS011;72459;50.110;8.750;2023-08-31T02:23:07;5.77;;;2.70;;
82727;SDS011;72459;50.110;8.750;2023-08-31T02:25:34;4.55;;;2.70;;
82727;SDS011;72459;50.110;8.750;2023-08-31T02:27:59;4.83;;;3.07;;
82727;SDS011;72459;50.110;8.750;2023-08-31T02:30:25;3.10;;;2.43;;
82727;SDS011;72459;50.110;8.750;2023-08-31T02:32:50;5.15;;;2.83;;
82727;SDS011;72459;50.110;8.750;2023-08-31T02:35:15;3.45;;;2.28;;
82727;SDS011;72459;50.110;8.750;2023-08-31T02:37:41;4.38;;;2.80;;
82727;SDS011;72459;50.110;8.750;2023-08-31T02:40:08;5.60;;;3.20;;
82727;SDS011;72459;50.110;8.750;2023-08-31T02:42:33;7.45;;;3.45;;
82727;SDS011;72459;50.110;8.750;2023-08-31T02:44:59;6.90;;;3.13;;
82727;SDS011;72459;50.110;8.750;2023-08-31T02:47:24;5.97;;;3.10;;
82727;SDS011;72459;50.110;8.750;2023-08-31T02:49:49;3.83;;;2.70;;
82727;SDS011;72459;50.110;8.750;2023-08-31T02:52:15;4.85;;;3.53;;
82727;SDS011;72459;50.110;8.750;2023-08-31T02:54:40;4.90;;;3.13;;
82727;SDS011;72459;50.110;8.750;2023-08-31T02:57:06;6.68;;;3.40;;
82727;SDS011;72459;50.110;8.750;2023-08-31T02:59:31;6.38;;;3.33;;
82727;SDS011;72459;50.110;8.750;2023-08-31T03:02:02;6.28;;;2.85;;
82727;SDS011;72459;50.110;8.750;2023-08-31T03:09:19;4.67;;;2.67;;
82727;SDS011;72459;50.110;8.750;2023-08-31T03:11:45;7.05;;;2.85;;
82727;SDS011;72459;50.110;8.750;2023-08-31T03:14:10;5.47;;;2.92;;
82727;SDS011;72459;50.110;8.750;2023-08-31T03:16:36;5.45;;;3.00;;
82727;SDS011;72459;50.110;8.750;2023-08-31T03:19:01;6.63;;;3.15;;
82727;SDS011;72459;50.110;8.750;2023-08-31T03:21:26;6.03;;;2.97;;
82727;SDS011;72459;50.110;8.750;2023-08-31T03:23:52;6.60;;;3.10;;
82727;SDS011;72459;50.110;8.750;2023-08-31T03:26:17;3.72;;;2.83;;
82727;SDS011;72459;50.110;8.750;2023-08-31T03:28:42;5.00;;;3.03;;
82727;SDS011;72459;50.110;8.750;2023-08-31T03:31:08;4.95;;;3.13;;
82727;SDS011;72459;50.110;8.750;2023-08-31T03:33:33;4.57;;;3.10;;
82727;SDS011;72459;50.110;8.750;2023-08-31T03:36:02;5.60;;;3.07;;
82727;SDS011;72459;50.110;8.750;2023-08-31T03:38:29;4.32;;;2.95;;
82727;SDS011;72459;50.110;8.750;2023-08-31T03:40:57;7.28;;;3.50;;
82727;SDS011;72459;50.110;8.750;2023-08-31T03:43:23;6.38;;;3.63;;
82727;SDS011;72459;50.110;8.750;2023-08-31T03:45:48;5.45;;;3.20;;
82727;SDS011;72459;50.110;8.750;2023-08-31T03:48:14;5.68;;;3.10;;
82727;SDS011;72459;50.110;8.750;2023-08-31T03:50:39;3.92;;;3.00;;
82727;SDS011;72459;50.110;8.750;2023-08-31T03:53:05;6.45;;;2.90;;
82727;SDS011;72459;50.110;8.750;2023-08-31T03:55:30;7.83;;;2.80;;
82727;SDS011;72459;50.110;8.750;2023-08-31T03:57:55;5.67;;;2.70;;
82727;SDS011;72459;50.110;8.750;2023-08-31T04:00:21;5.95;;;3.50;;
82727;SDS011;72459;50.110;8.750;2023-08-31T04:02:46;5.60;;;3.03;;
82727;SDS011;72459;50.110;8.750;2023-08-31T04:05:11;6.20;;;3.50;;
82727;SDS011;72459;50.110;8.750;2023-08-31T04:07:39;4.55;;;2.92;;
82727;SDS011;72459;50.110;8.750;2023-08-31T04:10:05;5.88;;;3.25;;
82727;SDS011;72459;50.110;8.750;2023-08-31T04:12:31;4.50;;;2.78;;
82727;SDS011;72459;50.110;8.750;2023-08-31T04:14:56;4.10;;;2.97;;
82727;SDS011;72459;50.110;8.750;2023-08-31T04:17:22;7.17;;;3.40;;
82727;SDS011;72459;50.110;8.750;2023-08-31T04:19:47;6.37;;;3.00;;
82727;SDS011;72459;50.110;8.750;2023-08-31T04:22:12;7.43;;;3.25;;
82727;SDS011;72459;50.110;8.750;2023-08-31T04:24:38;6.85;;;3.53;;
82727;SDS011;72459;50.110;8.750;2023-08-31T04:27:03;5.75;;;3.40;;
82727;SDS011;72459;50.110;8.750;2023-08-31T04:29:30;6.43;;;3.03;;
82727;SDS011;72459;50.110;8.750;2023-08-31T04:31:57;7.65;;;3.60;;
82727;SDS011;72459;50.110;8.750;2023-08-31T04:34:23;5.28;;;3.63;;
82727;SDS011;72459;50.110;8.750;2023-08-31T04:36:49;5.72;;;3.50;;
82727;SDS011;72459;50.110;8.750;2023-08-31T04:39:14;5.13;;;3.13;;
82727;SDS011;72459;50.110;8.750;2023-08-31T04:41:40;6.20;;;3.88;;
82727;SDS011;72459;50.110;8.750;2023-08-31T04:44:05;6.57;;;3.67;;
82727;SDS011;72459;50.110;8.750;2023-08-31T04:46:30;6.60;;;3.65;;
82727;SDS011;72459;50.110;8.750;2023-08-31T04:48:56;7.15;;;3.55;;
82727;SDS011;72459;50.110;8.750;2023-08-31T04:51:31;5.93;;;3.47;;
82727;SDS011;72459;50.110;8.750;2023-08-31T04:54:00;7.63;;;4.00;;
82727;SDS011;72459;50.110;8.750;2023-08-31T04:56:29;6.85;;;3.45;;
82727;SDS011;72459;50.110;8.750;2023-08-31T04:58:57;7.00;;;3.83;;
82727;SDS011;72459;50.110;8.750;2023-08-31T05:01:22;6.67;;;3.83;;
82727;SDS011;72459;50.110;8.750;2023-08-31T05:03:47;5.23;;;3.60;;
82727;SDS011;72459;50.110;8.750;2023-08-31T05:06:13;6.77;;;3.63;;
82727;SDS011;72459;50.110;8.750;2023-08-31T05:08:38;10.20;;;4.25;;
82727;SDS011;72459;50.110;8.750;2023-08-31T05:11:03;6.20;;;4.20;;
82727;SDS011;72459;50.110;8.750;2023-08-31T05:13:29;8.43;;;3.80;;
82727;SDS011;72459;50.110;8.750;2023-08-31T05:15:54;5.65;;;3.55;;
82727;SDS011;72459;50.110;8.750;2023-08-31T05:18:20;7.47;;;4.10;;
82727;SDS011;72459;50.110;8.750;2023-08-31T05:20:45;7.85;;;4.25;;
82727;SDS011;72459;50.110;8.750;2023-08-31T05:23:11;8.38;;;3.97;;
82727;SDS011;72459;50.110;8.750;2023-08-31T05:25:41;8.05;;;4.22;;
82727;SDS011;72459;50.110;8.750;2023-08-31T05:28:07;8.23;;;4.68;;
82727;SDS011;72459;50.110;8.750;2023-08-31T05:30:32;6.57;;;3.47;;
82727;SDS011;72459;50.110;8.750;2023-08-31T05:32:59;7.30;;;4.75;;
82727;SDS011;72459;50.110;8.750;2023-08-31T05:35:26;5.78;;;4.00;;
82727;SDS011;72459;50.110;8.750;2023-08-31T05:37:51;10.25;;;4.78;;
82727;SDS011;72459;50.110;8.750;2023-08-31T05:40:17;8.88;;;5.07;;
82727;SDS011;72459;50.110;8.750;2023-08-31T05:42:43;9.38;;;5.68;;
82727;SDS011;72459;50.110;8.750;2023-08-31T05:45:09;9.65;;;5.68;;
82727;SDS011;72459;50.110;8.750;2023-08-31T05:47:35;10.23;;;4.93;;
82727;SDS011;72459;50.110;8.750;2023-08-31T05:50:01;8.95;;;4.80;;
82727;SDS011;72459;50.110;8.750;2023-08-31T05:52:27;9.50;;;5.60;;
82727;SDS011;72459;50.110;8.750;2023-08-31T05:54:52;10.30;;;5.93;;
82727;SDS011;72459;50.110;8.750;2023-08-31T05:57:18;12.82;;;6.20;;
82727;SDS011;72459;50.110;8.750;2023-08-31T05:59:44;9.82;;;5.75;;
82727;SDS011;72459;50.110;8.750;2023-08-31T06:02:10;8.45;;;5.95;;
82727;SDS011;72459;50.110;8.750;2023-08-31T06:04:36;9.73;;;6.05;;
82727;SDS011;72459;50.110;8.750;2023-08-31T06:07:01;12.52;;;5.90;;
82727;SDS011;72459;50.110;8.750;2023-08-31T06:09:27;8.48;;;4.90;;
82727;SDS011;72459;50.110;8.750;2023-08-31T06:11:52;9.73;;;5.55;;
82727;SDS011;72459;50.110;8.750;2023-08-31T06:14:17;8.83;;;5.47;;
82727;SDS011;72459;50.110;8.750;2023-08-31T06:16:44;10.30;;;5.45;;
82727;SDS011;72459;50.110;8.750;2023-08-31T06:19:09;8.57;;;4.32;;
82727;SDS011;72459;50.110;8.750;2023-08-31T06:21:35;7.53;;;4.27;;
82727;SDS011;72459;50.110;8.750;2023-08-31T06:24:00;7.93;;;4.77;;
82727;SDS011;72459;50.110;8.750;2023-08-31T06:26:26;8.30;;;4.68;;
82727;SDS011;72459;50.110;8.750;2023-08-31T06:28:51;8.30;;;5.17;;
82727;SDS011;72459;50.110;8.750;2023-08-31T06:31:16;5.47;;;4.30;;
82727;SDS011;72459;50.110;8.750;2023-08-31T06:33:41;8.48;;;4.60;;
82727;SDS011;72459;50.110;8.750;2023-08-31T06:36:07;11.60;;;5.37;;
82727;SDS011;72459;50.110;8.750;2023-08-31T06:38:32;7.07;;;4.50;;
82727;SDS011;72459;50.110;8.750;2023-08-31T06:40:58;8.15;;;4.72;;
82727;SDS011;72459;50.110;8.750;2023-08-31T06:43:24;6.22;;;4.53;;
82727;SDS011;72459;50.110;8.750;2023-08-31T06:45:52;9.23;;;4.93;;
82727;SDS011;72459;50.110;8.750;2023-08-31T06:48:18;8.85;;;4.45;;
82727;SDS011;72459;50.110;8.750;2023-08-31T06:50:43;5.87;;;4.10;;
82727;SDS011;72459;50.110;8.750;2023-08-31T06:53:09;5.65;;;3.80;;
82727;SDS011;72459;50.110;8.750;2023-08-31T06:55:34;5.90;;;3.97;;
82727;SDS011;72459;50.110;8.750;2023-08-31T06:58:01;7.10;;;4.40;;
82727;SDS011;72459;50.110;8.750;2023-08-31T07:00:27;6.72;;;3.92;;
82727;SDS011;72459;50.110;8.750;2023-08-31T07:02:53;6.68;;;3.45;;
82727;SDS011;72459;50.110;8.750;2023-08-31T07:05:18;8.20;;;3.42;;
82727;SDS011;72459;50.110;8.750;2023-08-31T07:07:50;5.07;;;3.50;;
82727;SDS011;72459;50.110;8.750;2023-08-31T07:10:17;6.10;;;3.30;;
82727;SDS011;72459;50.110;8.750;2023-08-31T07:12:42;7.00;;;3.03;;
82727;SDS011;72459;50.110;8.750;2023-08-31T07:15:08;4.55;;;3.05;;
82727;SDS011;72459;50.110;8.750;2023-08-31T07:17:33;6.18;;;3.08;;
82727;SDS011;72459;50.110;8.750;2023-08-31T07:19:59;5.40;;;2.33;;
82727;SDS011;72459;50.110;8.750;2023-08-31T07:22:24;4.00;;;2.47;;
82727;SDS011;72459;50.110;8.750;2023-08-31T07:24:49;6.00;;;2.40;;
82727;SDS011;72459;50.110;8.750;2023-08-31T07:27:16;3.38;;;2.15;;
82727;SDS011;72459;50.110;8.750;2023-08-31T07:29:41;4.35;;;2.22;;
82727;SDS011;72459;50.110;8.750;2023-08-31T07:32:07;4.50;;;2.43;;
82727;SDS011;72459;50.110;8.750;2023-08-31T07:34:33;3.50;;;2.30;;
82727;SDS011;72459;50.110;8.750;2023-08-31T07:36:59;5.75;;;2.50;;
82727;SDS011;72459;50.110;8.750;2023-08-31T07:39:25;6.13;;;2.60;;
82727;SDS011;72459;50.110;8.750;2023-08-31T07:41:52;4.65;;;2.50;;
82727;SDS011;72459;50.110;8.750;2023-08-31T07:44:19;5.55;;;2.70;;
82727;SDS011;72459;50.110;8.750;2023-08-31T07:46:46;5.35;;;2.13;;
82727;SDS011;72459;50.110;8.750;2023-08-31T07:49:12;4.28;;;2.20;;
82727;SDS011;72459;50.110;8.750;2023-08-31T07:51:37;3.33;;;2.17;;
82727;SDS011;72459;50.110;8.750;2023-08-31T07:54:03;4.97;;;1.88;;
82727;SDS011;72459;50.110;8.750;2023-08-31T07:56:28;3.33;;;1.58;;
82727;SDS011;72459;50.110;8.750;2023-08-31T07:58:57;5.32;;;1.83;;
82727;SDS011;72459;50.110;8.750;2023-08-31T08:01:22;7.15;;;1.88;;
82727;SDS011;72459;50.110;8.750;2023-08-31T08:03:47;2.78;;;1.67;;
82727;SDS011;72459;50.110;8.750;2023-08-31T08:06:13;3.60;;;1.75;;
82727;SDS011;72459;50.110;8.750;2023-08-31T08:08:39;4.28;;;1.58;;
82727;SDS011;72459;50.110;8.750;2023-08-31T08:11:04;2.60;;;1.75;;
82727;SDS011;72459;50.110;8.750;2023-08-31T08:13:30;4.30;;;1.60;;
82727;SDS011;72459;50.110;8.750;2023-08-31T08:15:55;3.95;;;1.70;;
82727;SDS011;72459;50.110;8.750;2023-08-31T08:18:22;3.65;;;1.70;;
82727;SDS011;72459;50.110;8.750;2023-08-31T08:20:48;5.45;;;2.70;;
82727;SDS011;72459;50.110;8.750;2023-08-31T08:23:15;3.35;;;1.60;;
82727;SDS011;72459;50.110;8.750;2023-08-31T08:25:40;2.38;;;1.48;;
82727;SDS011;72459;50.110;8.750;2023-08-31T08:28:05;2.63;;;1.60;;
82727;SDS011;72459;50.110;8.750;2023-08-31T08:30:31;4.38;;;1.63;;
82727;SDS011;72459;50.110;8.750;2023-08-31T08:32:56;4.18;;;1.52;;
82727;SDS011;72459;50.110;8.750;2023-08-31T08:35:23;4.72;;;1.50;;
82727;SDS011;72459;50.110;8.750;2023-08-31T08:37:49;4.45;;;1.77;;
82727;SDS011;72459;50.110;8.750;2023-08-31T08:40:14;3.47;;;1.42;;
82727;SDS011;72459;50.110;8.750;2023-08-31T08:42:41;5.57;;;1.30;;
82727;SDS011;72459;50.110;8.750;2023-08-31T08:45:13;4.22;;;1.52;;
82727;SDS011;72459;50.110;8.750;2023-08-31T08:47:43;3.83;;;1.63;;
82727;SDS011;72459;50.110;8.750;2023-08-31T08:50:10;2.78;;;1.30;;
82727;SDS011;72459;50.110;8.750;2023-08-31T08:52:36;3.15;;;1.42;;
82727;SDS011;72459;50.110;8.750;2023-08-31T08:55:04;2.63;;;1.38;;
82727;SDS011;72459;50.110;8.750;2023-08-31T08:57:30;4.50;;;1.67;;
82727;SDS011;72459;50.110;8.750;2023-08-31T08:59:57;4.25;;;1.50;;
82727;SDS011;72459;50.110;8.750;2023-08-31T09:04:50;3.28;;;1.20;;
82727;SDS011;72459;50.110;8.750;2023-08-31T09:07:22;5.55;;;1.25;;
82727;SDS011;72459;50.110;8.750;2023-08-31T09:09:52;3.35;;;1.23;;
82727;SDS011;72459;50.110;8.750;2023-08-31T09:12:22;4.25;;;1.60;;
82727;SDS011;72459;50.110;8.750;2023-08-31T09:15:02;2.72;;;1.67;;
82727;SDS011;72459;50.110;8.750;2023-08-31T09:17:42;3.72;;;1.63;;
82727;SDS011;72459;50.110;8.750;2023-08-31T09:20:12;4.00;;;1.23;;
82727;SDS011;72459;50.110;8.750;2023-08-31T09:22:38;5.53;;;1.70;;
82727;SDS011;72459;50.110;8.750;2023-08-31T09:25:10;3.75;;;1.27;;
82727;SDS011;72459;50.110;8.750;2023-08-31T09:27:38;3.20;;;1.27;;
82727;SDS011;72459;50.110;8.750;2023-08-31T09:30:06;3.35;;;1.40;;
82727;SDS011;72459;50.110;8.750;2023-08-31T09:32:32;2.20;;;1.23;;
82727;SDS011;72459;50.110;8.750;2023-08-31T09:34:57;3.97;;;1.30;;
82727;SDS011;72459;50.110;8.750;2023-08-31T09:37:27;5.82;;;1.48;;
82727;SDS011;72459;50.110;8.750;2023-08-31T09:39:52;3.87;;;1.20;;
82727;SDS011;72459;50.110;8.750;2023-08-31T09:42:18;3.70;;;1.40;;
82727;SDS011;72459;50.110;8.750;2023-08-31T09:44:43;4.88;;;1.50;;
82727;SDS011;72459;50.110;8.750;2023-08-31T09:47:10;3.80;;;1.33;;
82727;SDS011;72459;50.110;8.750;2023-08-31T09:49:49;3.80;;;1.33;;
82727;SDS011;72459;50.110;8.750;2023-08-31T09:52:15;5.15;;;1.70;;
82727;SDS011;72459;50.110;8.750;2023-08-31T09:54:42;3.45;;;1.30;;
82727;SDS011;72459;50.110;8.750;2023-08-31T09:57:09;2.22;;;1.55;;
82727;SDS011;72459;50.110;8.750;2023-08-31T09:59:37;4.07;;;1.70;;
82727;SDS011;72459;50.110;8.750;2023-08-31T10:02:04;3.08;;;1.38;;
82727;SDS011;72459;50.110;8.750;2023-08-31T10:04:31;5.43;;;2.08;;
82727;SDS011;72459;50.110;8.750;2023-08-31T10:07:01;5.32;;;1.70;;
82727;SDS011;72459;50.110;8.750;2023-08-31T10:09:29;3.80;;;1.50;;
82727;SDS011;72459;50.110;8.750;2023-08-31T10:11:55;3.83;;;1.50;;
82727;SDS011;72459;50.110;8.750;2023-08-31T10:14:21;2.97;;;1.40;;
82727;SDS011;72459;50.110;8.750;2023-08-31T10:16:47;4.13;;;1.52;;
82727;SDS011;72459;50.110;8.750;2023-08-31T10:19:14;4.10;;;1.40;;
82727;SDS011;72459;50.110;8.750;2023-08-31T10:21:40;2.67;;;1.40;;
82727;SDS011;72459;50.110;8.750;2023-08-31T10:24:06;5.20;;;1.45;;
82727;SDS011;72459;50.110;8.750;2023-08-31T10:26:32;4.63;;;1.63;;
82727;SDS011;72459;50.110;8.750;2023-08-31T10:28:58;4.50;;;1.25;;
82727;SDS011;72459;50.110;8.750;2023-08-31T10:31:28;4.28;;;1.67;;
82727;SDS011;72459;50.110;8.750;2023-08-31T10:34:04;3.15;;;1.40;;
82727;SDS011;72459;50.110;8.750;2023-08-31T10:36:41;3.15;;;1.30;;
82727;SDS011;72459;50.110;8.750;2023-08-31T10:39:13;4.50;;;1.40;;
82727;SDS011;72459;50.110;8.750;2023-08-31T10:41:41;2.60;;;1.38;;
82727;SDS011;72459;50.110;8.750;2023-08-31T10:44:19;4.20;;;1.60;;
82727;SDS011;72459;50.110;8.750;2023-08-31T10:46:49;3.28;;;1.17;;
82727;SDS011;72459;50.110;8.750;2023-08-31T10:49:16;5.70;;;1.20;;
82727;SDS011;72459;50.110;8.750;2023-08-31T10:51:44;2.78;;;1.17;;
82727;SDS011;72459;50.110;8.750;2023-08-31T10:54:12;5.82;;;1.60;;
82727;SDS011;72459;50.110;8.750;2023-08-31T10:56:51;3.08;;;1.30;;
82727;SDS011;72459;50.110;8.750;2023-08-31T10:59:23;4.35;;;1.27;;
82727;SDS011;72459;50.110;8.750;2023-08-31T11:01:56;3.50;;;1.40;;
82727;SDS011;72459;50.110;8.750;2023-08-31T11:04:26;2.60;;;1.50;;
82727;SDS011;72459;50.110;8.750;2023-08-31T11:09:51;3.50;;;1.42;;
82727;SDS011;72459;50.110;8.750;2023-08-31T11:12:17;2.15;;;1.00;;
82727;SDS011;72459;50.110;8.750;2023-08-31T11:14:47;3.20;;;1.30;;
82727;SDS011;72459;50.110;8.750;2023-08-31T11:17:13;4.57;;;1.52;;
82727;SDS011;72459;50.110;8.750;2023-08-31T11:19:38;4.78;;;1.50;;
82727;SDS011;72459;50.110;8.750;2023-08-31T11:22:04;3.15;;;1.40;;
82727;SDS011;72459;50.110;8.750;2023-08-31T11:24:32;3.10;;;1.27;;
82727;SDS011;72459;50.110;8.750;2023-08-31T11:26:59;3.95;;;1.23;;
82727;SDS011;72459;50.110;8.750;2023-08-31T11:29:28;3.70;;;1.33;;
82727;SDS011;72459;50.110;8.750;2023-08-31T11:31:55;3.65;;;1.52;;
82727;SDS011;72459;50.110;8.750;2023-08-31T11:34:22;3.72;;;1.42;;
82727;SDS011;72459;50.110;8.750;2023-08-31T11:36:48;4.03;;;1.10;;
82727;SDS011;72459;50.110;8.750;2023-08-31T11:39:13;5.07;;;1.42;;
82727;SDS011;72459;50.110;8.750;2023-08-31T11:41:39;1.60;;;1.20;;
82727;SDS011;72459;50.110;8.750;2023-08-31T11:44:12;3.63;;;1.75;;
82727;SDS011;72459;50.110;8.750;2023-08-31T11:46:39;3.70;;;1.30;;
82727;SDS011;72459;50.110;8.750;2023-08-31T11:49:06;3.28;;;1.27;;
82727;SDS011;72459;50.110;8.750;2023-08-31T11:51:32;2.15;;;1.20;;
82727;SDS011;72459;50.110;8.750;2023-08-31T11:53:59;3.33;;;1.38;;
82727;SDS011;72459;50.110;8.750;2023-08-31T11:56:27;4.75;;;1.30;;
82727;SDS011;72459;50.110;8.750;2023-08-31T11:59:06;1.80;;;1.30;;
82727;SDS011;72459;50.110;8.750;2023-08-31T12:01:33;2.20;;;0.93;;
82727;SDS011;72459;50.110;8.750;2023-08-31T12:04:09;4.75;;;1.10;;
82727;SDS011;72459;50.110;8.750;2023-08-31T12:06:51;3.60;;;1.40;;
82727;SDS011;72459;50.110;8.750;2023-08-31T12:09:20;2.70;;;1.17;;
82727;SDS011;72459;50.110;8.750;2023-08-31T12:11:52;2.10;;;1.45;;
82727;SDS011;72459;50.110;8.750;2023-08-31T12:14:19;3.22;;;1.10;;
82727;SDS011;72459;50.110;8.750;2023-08-31T12:16:45;2.65;;;1.23;;
82727;SDS011;72459;50.110;8.750;2023-08-31T12:19:10;2.60;;;1.08;;
82727;SDS011;72459;50.110;8.750;2023-08-31T12:21:36;3.78;;;1.45;;
82727;SDS011;72459;50.110;8.750;2023-08-31T12:24:01;2.67;;;1.27;;
82727;SDS011;72459;50.110;8.750;2023-08-31T12:26:28;3.15;;;1.48;;
82727;SDS011;72459;50.110;8.750;2023-08-31T12:28:54;2.53;;;1.20;;
82727;SDS011;72459;50.110;8.750;2023-08-31T12:31:19;3.20;;;1.13;;
82727;SDS011;72459;50.110;8.750;2023-08-31T12:33:46;2.75;;;1.30;;
82727;SDS011;72459;50.110;8.750;2023-08-31T12:36:12;3.78;;;1.50;;
82727;SDS011;72459;50.110;8.750;2023-08-31T12:38:38;3.08;;;1.15;;
82727;SDS011;72459;50.110;8.750;2023-08-31T12:41:03;3.30;;;1.30;;
82727;SDS011;72459;50.110;8.750;2023-08-31T12:43:29;3.08;;;1.05;;
82727;SDS011;72459;50.110;8.750;2023-08-31T12:45:54;2.28;;;1.10;;
82727;SDS011;72459;50.110;8.750;2023-08-31T12:48:20;2.03;;;0.95;;
82727;SDS011;72459;50.110;8.750;2023-08-31T12:50:46;3.67;;;1.10;;
82727;SDS011;72459;50.110;8.750;2023-08-31T12:53:13;2.05;;;1.35;;
82727;SDS011;72459;50.110;8.750;2023-08-31T12:55:39;2.67;;;1.42;;
82727;SDS011;72459;50.110;8.750;2023-08-31T12:58:04;4.25;;;1.02;;
82727;SDS011;72459;50.110;8.750;2023-08-31T13:00:29;4.25;;;1.40;;
82727;SDS011;72459;50.110;8.750;2023-08-31T13:02:55;3.08;;;1.40;;
82727;SDS011;72459;50.110;8.750;2023-08-31T13:05:20;3.30;;;1.40;;
82727;SDS011;72459;50.110;8.750;2023-08-31T13:07:46;3.20;;;1.30;;
82727;SDS011;72459;50.110;8.750;2023-08-31T13:10:11;3.17;;;1.20;;
82727;SDS011;72459;50.110;8.750;2023-08-31T13:12:36;2.05;;;1.23;;
82727;SDS011;72459;50.110;8.750;2023-08-31T13:15:02;5.35;;;1.33;;
82727;SDS011;72459;50.110;8.750;2023-08-31T13:17:28;3.58;;;1.10;;
82727;SDS011;72459;50.110;8.750;2023-08-31T13:19:54;3.55;;;1.20;;
82727;SDS011;72459;50.110;8.750;2023-08-31T13:22:20;2.63;;;1.33;;
82727;SDS011;72459;50.110;8.750;2023-08-31T13:24:46;2.22;;;1.10;;
82727;SDS011;72459;50.110;8.750;2023-08-31T13:27:12;2.80;;;1.30;;
82727;SDS011;72459;50.110;8.750;2023-08-31T13:29:38;2.35;;;1.13;;
82727;SDS011;72459;50.110;8.750;2023-08-31T13:32:04;2.28;;;1.23;;
82727;SDS011;72459;50.110;8.750;2023-08-31T13:34:30;2.13;;;0.88;;
82727;SDS011;72459;50.110;8.750;2023-08-31T13:36:55;2.50;;;1.02;;
82727;SDS011;72459;50.110;8.750;2023-08-31T13:39:21;1.50;;;1.15;;
82727;SDS011;72459;50.110;8.750;2023-08-31T13:41:50;2.20;;;0.93;;
82727;SDS011;72459;50.110;8.750;2023-08-31T13:44:16;3.38;;;1.20;;
82727;SDS011;72459;50.110;8.750;2023-08-31T13:46:42;2.67;;;1.25;;
82727;SDS011;72459;50.110;8.750;2023-08-31T13:49:07;2.13;;;1.05;;
82727;SDS011;72459;50.110;8.750;2023-08-31T13:51:33;2.42;;;1.05;;
82727;SDS011;72459;50.110;8.750;2023-08-31T13:53:58;3.35;;;1.23;;
82727;SDS011;72459;50.110;8.750;2023-08-31T13:56:24;3.60;;;1.20;;
82727;SDS011;72459;50.110;8.750;2023-08-31T13:58:49;2.92;;;1.42;;
82727;SDS011;72459;50.110;8.750;2023-08-31T14:01:14;3.03;;;1.20;;
82727;SDS011;72459;50.110;8.750;2023-08-31T14:03:40;2.90;;;1.25;;
82727;SDS011;72459;50.110;8.750;2023-08-31T14:06:07;2.42;;;1.00;;
82727;SDS011;72459;50.110;8.750;2023-08-31T14:08:33;2.72;;;1.13;;
82727;SDS011;72459;50.110;8.750;2023-08-31T14:10:58;2.63;;;1.10;;
82727;SDS011;72459;50.110;8.750;2023-08-31T14:13:24;2.38;;;1.30;;
82727;SDS011;72459;50.110;8.750;2023-08-31T14:15:50;3.20;;;1.35;;
82727;SDS011;72459;50.110;8.750;2023-08-31T14:18:15;5.45;;;1.20;;
82727;SDS011;72459;50.110;8.750;2023-08-31T14:20:41;4.05;;;1.40;;
82727;SDS011;72459;50.110;8.750;2023-08-31T14:23:08;2.55;;;1.10;;
82727;SDS011;72459;50.110;8.750;2023-08-31T14:25:35;2.55;;;1.00;;
82727;SDS011;72459;50.110;8.750;2023-08-31T14:28:01;2.40;;;1.27;;
82727;SDS011;72459;50.110;8.750;2023-08-31T14:30:27;2.15;;;1.20;;
82727;SDS011;72459;50.110;8.750;2023-08-31T14:32:53;4.22;;;1.50;;
82727;SDS011;72459;50.110;8.750;2023-08-31T14:35:18;3.13;;;1.40;;
82727;SDS011;72459;50.110;8.750;2023-08-31T14:37:44;4.45;;;1.52;;
82727;SDS011;72459;50.110;8.750;2023-08-31T14:40:09;2.70;;;1.50;;
82727;SDS011;72459;50.110;8.750;2023-08-31T14:42:35;3.97;;;1.33;;
82727;SDS011;72459;50.110;8.750;2023-08-31T14:45:01;2.33;;;1.27;;
82727;SDS011;72459;50.110;8.750;2023-08-31T14:47:27;3.15;;;1.10;;
82727;SDS011;72459;50.110;8.750;2023-08-31T14:49:54;5.30;;;1.48;;
82727;SDS011;72459;50.110;8.750;2023-08-31T14:52:20;2.95;;;1.30;;
82727;SDS011;72459;50.110;8.750;2023-08-31T14:54:46;3.33;;;1.38;;
82727;SDS011;72459;50.110;8.750;2023-08-31T14:57:11;3.15;;;1.48;;
82727;SDS011;72459;50.110;8.750;2023-08-31T14:59:37;3.50;;;1.08;;
82727;SDS011;72459;50.110;8.750;2023-08-31T15:02:03;3.45;;;1.20;;